Sky Beauty — DSRI6 — position and weather

sailwx.info

Track history (hours):
 
Tides and Currents Weather Stations Pressure Air Temp Water Temp Dewpoint Dewpoint Depression Visibility Wind Speed Wind Dir Waves Ship Positions

Sky Beauty

Last reported at 2017-Nov-19 10:09 UTC. Time now 2017-Nov-21 21:07 UTC.
Position N 34°39' E 135°27'.

Length 92 m; draft 5.3 m.

Type: Cargo ship. MMSI: 441874000.

Date/timePositionNaut miles runAvg speedWind from/ knotsBaromVisibWave heightAir tempDewpointWater temp
2017-Nov-19 10:09N 34°39' E 135°27'0 0.0
2017-Nov-19 09:57N 34°39' E 135°27'0 0.0
2017-Nov-19 09:27N 34°39' E 135°27'0 0.0
2017-Nov-19 08:51N 34°39' E 135°27'0 0.0
2017-Nov-19 03:51N 34°39' E 135°27'0 0.5
2017-Nov-19 03:30N 34°39' E 135°27'1 2.4
2017-Nov-19 03:00N 34°39' E 135°25'3 6.0
2017-Nov-19 02:27N 34°37' E 135°22'0 0.0
2017-Nov-19 01:57N 34°37' E 135°22'0 0.1
2017-Nov-19 01:15N 34°37' E 135°22'0 0.0
2017-Nov-19 00:57N 34°37' E 135°22'0 0.0
2017-Nov-19 00:15N 34°37' E 135°22'0 0.0
2017-Nov-18 23:57N 34°37' E 135°22'0 0.0
2017-Nov-18 23:27N 34°37' E 135°22'0 0.0
2017-Nov-18 22:57N 34°37' E 135°22'0 0.0
2017-Nov-18 22:09N 34°37' E 135°22'0 0.0
2017-Nov-18 21:44N 34°37' E 135°22'0 0.0
2017-Nov-18 21:26N 34°37' E 135°22'0 0.0
2017-Nov-18 20:56N 34°37' E 135°22'0 0.0
2017-Nov-18 20:26N 34°37' E 135°22'0 0.0
2017-Nov-18 19:50N 34°37' E 135°22'0 0.0
2017-Nov-18 19:26N 34°37' E 135°22'0 0.0
2017-Nov-18 18:56N 34°37' E 135°22'0 0.1
2017-Nov-18 18:26N 34°37' E 135°22'0 0.0
2017-Nov-18 17:56N 34°37' E 135°22'1 1.7
2017-Nov-18 17:30N 34°36' E 135°21'5 9.9
2017-Nov-18 17:00N 34°35' E 135°15'611.2
2017-Nov-18 16:30N 34°35' E 135°08'713.4
2017-Nov-18 16:00N 34°37' E 135°01'  
Track history (hours):
 
Tides and Currents Weather Stations Pressure Air Temp Water Temp Dewpoint Dewpoint Depression Visibility Wind Speed Wind Dir Waves Ship Positions

Sky Beauty

Last reported at 2017-Nov-19 10:09 UTC. Time now 2017-Nov-21 21:07 UTC.
Position N 34°39' E 135°27'.

Length 92 m; draft 5.3 m.

Type: Cargo ship. MMSI: 441874000.

Date/timePositionNaut miles runAvg speedWind from/ knotsBaromVisibWave heightAir tempDewpointWater temp
2017-Nov-19 10:09N 34°39' E 135°27'0 0.0
2017-Nov-19 09:57N 34°39' E 135°27'0 0.0
2017-Nov-19 09:27N 34°39' E 135°27'0 0.0
2017-Nov-19 08:51N 34°39' E 135°27'0 0.0
2017-Nov-19 03:51N 34°39' E 135°27'0 0.5
2017-Nov-19 03:30N 34°39' E 135°27'1 2.4
2017-Nov-19 03:00N 34°39' E 135°25'3 6.0
2017-Nov-19 02:27N 34°37' E 135°22'0 0.0
2017-Nov-19 01:57N 34°37' E 135°22'0 0.1
2017-Nov-19 01:15N 34°37' E 135°22'0 0.0
2017-Nov-19 00:57N 34°37' E 135°22'0 0.0
2017-Nov-19 00:15N 34°37' E 135°22'0 0.0
2017-Nov-18 23:57N 34°37' E 135°22'0 0.0
2017-Nov-18 23:27N 34°37' E 135°22'0 0.0
2017-Nov-18 22:57N 34°37' E 135°22'0 0.0
2017-Nov-18 22:09N 34°37' E 135°22'0 0.0
2017-Nov-18 21:44N 34°37' E 135°22'0 0.0
2017-Nov-18 21:26N 34°37' E 135°22'0 0.0
2017-Nov-18 20:56N 34°37' E 135°22'0 0.0
2017-Nov-18 20:26N 34°37' E 135°22'0 0.0
2017-Nov-18 19:50N 34°37' E 135°22'0 0.0
2017-Nov-18 19:26N 34°37' E 135°22'0 0.0
2017-Nov-18 18:56N 34°37' E 135°22'0 0.1
2017-Nov-18 18:26N 34°37' E 135°22'0 0.0
2017-Nov-18 17:56N 34°37' E 135°22'1 1.7
2017-Nov-18 17:30N 34°36' E 135°21'5 9.9
2017-Nov-18 17:00N 34°35' E 135°15'611.2
2017-Nov-18 16:30N 34°35' E 135°08'713.4
2017-Nov-18 16:00N 34°37' E 135°01'  

Dump ship's entire track history